Time;durP1;ratioP1;P1;durP2;ratioP2;P2;SDS_P1;SDS_P2;PMS_P1;PMS_P2;Temp;Humidity;BMP_temperature;BMP_pressure;BME280_temperature;BME280_humidity;BME280_pressure;Samples;Min_cycle;Max_cycle;Signal;HPM_P1;HPM_P2
2021/12/29 00:00:14;;;;;;;173.05;72.78;;;;;;;;;;5037659;28;20024;-52
2021/12/29 00:02:40;;;;;;;174.63;69.60;;;;;;;;;;5036441;28;20235;-52
2021/12/29 00:05:06;;;;;;;156.57;63.40;;;;;;;;;;5037663;28;20512;-52
2021/12/29 00:07:31;;;;;;;156.52;64.93;;;;;;;;;;5039367;28;20420;-52
2021/12/29 00:10:00;;;;;;;147.07;63.63;;;;;;;;;;5041840;28;20040;-52
2021/12/29 00:12:26;;;;;;;165.48;62.83;;;;;;;;;;5029609;28;20046;-50
2021/12/29 00:14:56;;;;;;;138.27;57.92;;;;;;;;;;5040538;28;20103;-52
2021/12/29 00:17:22;;;;;;;143.70;55.78;;;;;;;;;;5036165;28;20557;-53
2021/12/29 00:19:48;;;;;;;135.18;53.85;;;;;;;;;;5047513;28;20060;-50
2021/12/29 00:22:14;;;;;;;122.18;49.25;;;;;;;;;;5032798;28;20085;-52
2021/12/29 00:24:40;;;;;;;117.07;44.50;;;;;;;;;;5042793;28;20473;-49
2021/12/29 00:27:06;;;;;;;109.75;45.42;;;;;;;;;;5038430;28;20545;-49
2021/12/29 00:29:32;;;;;;;101.20;42.85;;;;;;;;;;5039564;28;20494;-50
2021/12/29 00:31:57;;;;;;;95.55;36.25;;;;;;;;;;5050694;28;20041;-50
2021/12/29 00:34:23;;;;;;;87.18;35.58;;;;;;;;;;5036415;28;20471;-49
2021/12/29 00:36:48;;;;;;;68.35;28.65;;;;;;;;;;5038416;28;20035;-49
2021/12/29 00:39:14;;;;;;;58.83;23.67;;;;;;;;;;5036741;28;20120;-49
2021/12/29 00:41:39;;;;;;;49.53;21.13;;;;;;;;;;5036540;28;20037;-50
2021/12/29 00:44:07;;;;;;;53.80;18.15;;;;;;;;;;5032843;28;20020;-50
2021/12/29 00:46:37;;;;;;;39.80;17.00;;;;;;;;;;5039197;28;20154;-49
2021/12/29 00:49:03;;;;;;;39.40;15.02;;;;;;;;;;5038573;28;20035;-49
2021/12/29 00:51:29;;;;;;;31.25;14.32;;;;;;;;;;5037521;28;20504;-50
2021/12/29 00:53:54;;;;;;;43.70;18.08;;;;;;;;;;5042402;28;20043;-50
2021/12/29 00:56:20;;;;;;;44.17;18.63;;;;;;;;;;5039690;28;20307;-52
2021/12/29 00:58:45;;;;;;;24.08;11.13;;;;;;;;;;5041262;28;20028;-52
2021/12/29 01:01:11;;;;;;;25.55;11.80;;;;;;;;;;5035359;28;20555;-50
2021/12/29 01:03:38;;;;;;;34.88;16.17;;;;;;;;;;5039821;28;20112;-51
2021/12/29 01:06:04;;;;;;;34.28;12.50;;;;;;;;;;5044617;28;20132;-52
2021/12/29 01:08:30;;;;;;;39.33;14.77;;;;;;;;;;5038130;28;21102;-50
2021/12/29 01:10:55;;;;;;;35.08;11.20;;;;;;;;;;5039687;28;20241;-52
2021/12/29 01:13:29;;;;;;;23.50;8.60;;;;;;;;;;5048343;28;20484;-52
2021/12/29 01:16:15;;;;;;;25.60;9.45;;;;;;;;;;5045003;28;20033;-49
2021/12/29 01:18:43;;;;;;;24.13;10.77;;;;;;;;;;5041311;28;20079;-53
2021/12/29 01:21:09;;;;;;;21.38;8.32;;;;;;;;;;5044776;28;20040;-53
2021/12/29 01:23:35;;;;;;;20.05;7.82;;;;;;;;;;5049215;28;20488;-54
2021/12/29 01:26:01;;;;;;;24.80;10.68;;;;;;;;;;5042588;28;20041;-53
2021/12/29 01:28:26;;;;;;;20.08;8.48;;;;;;;;;;5039203;28;20404;-54
2021/12/29 01:30:52;;;;;;;25.83;8.65;;;;;;;;;;5041121;28;20033;-49
2021/12/29 01:33:17;;;;;;;21.23;8.90;;;;;;;;;;5050483;28;20032;-49
2021/12/29 01:35:43;;;;;;;24.83;8.55;;;;;;;;;;5041744;28;20037;-49
2021/12/29 01:38:09;;;;;;;28.58;7.95;;;;;;;;;;5043015;28;20035;-50
2021/12/29 01:40:38;;;;;;;37.67;9.80;;;;;;;;;;5040969;28;20811;-49
2021/12/29 01:43:05;;;;;;;24.95;7.53;;;;;;;;;;5044415;28;20064;-53
2021/12/29 01:45:31;;;;;;;21.60;8.35;;;;;;;;;;5037869;28;20028;-48
2021/12/29 01:47:56;;;;;;;22.92;7.93;;;;;;;;;;5044555;28;20040;-50
2021/12/29 01:50:22;;;;;;;24.45;7.78;;;;;;;;;;5043169;28;20115;-51
2021/12/29 01:52:55;;;;;;;26.88;8.18;;;;;;;;;;5036096;28;20048;-50
2021/12/29 01:55:25;;;;;;;18.33;6.78;;;;;;;;;;5041454;28;20032;-49
2021/12/29 01:57:51;;;;;;;33.22;8.73;;;;;;;;;;5038583;28;20297;-50
2021/12/29 02:00:20;;;;;;;27.70;7.65;;;;;;;;;;5036778;28;20032;-51
2021/12/29 02:02:46;;;;;;;25.92;7.50;;;;;;;;;;5042903;28;20039;-54
2021/12/29 02:05:12;;;;;;;24.92;5.93;;;;;;;;;;5045162;28;20415;-49
2021/12/29 02:07:37;;;;;;;25.27;5.25;;;;;;;;;;5044131;28;20079;-51
2021/12/29 02:10:05;;;;;;;24.67;5.93;;;;;;;;;;5041255;28;20037;-49
2021/12/29 02:12:30;;;;;;;19.15;5.75;;;;;;;;;;5040641;28;20044;-48
2021/12/29 02:14:56;;;;;;;33.13;5.85;;;;;;;;;;5033188;28;20037;-52
2021/12/29 02:17:21;;;;;;;20.40;4.68;;;;;;;;;;5033945;28;20095;-52
2021/12/29 02:19:48;;;;;;;28.30;5.90;;;;;;;;;;5039239;28;20024;-52
2021/12/29 02:22:29;;;;;;;23.85;4.85;;;;;;;;;;5031227;28;20451;-51
2021/12/29 02:25:07;;;;;;;15.10;4.28;;;;;;;;;;5038269;28;20040;-52
2021/12/29 02:27:35;;;;;;;35.33;5.07;;;;;;;;;;5032239;28;20449;-51
2021/12/29 02:30:02;;;;;;;21.60;4.60;;;;;;;;;;5037015;28;20277;-49
2021/12/29 02:32:29;;;;;;;30.20;5.55;;;;;;;;;;5032054;28;20394;-50
2021/12/29 02:34:54;;;;;;;25.60;5.18;;;;;;;;;;5038615;28;20056;-49
2021/12/29 02:37:20;;;;;;;37.05;5.40;;;;;;;;;;5037533;28;20060;-51
2021/12/29 02:39:47;;;;;;;22.52;4.15;;;;;;;;;;5039002;28;20055;-51
2021/12/29 02:42:14;;;;;;;38.85;4.72;;;;;;;;;;5036400;28;20048;-51
2021/12/29 02:44:41;;;;;;;22.85;4.45;;;;;;;;;;5042142;28;20435;-50
2021/12/29 02:47:09;;;;;;;28.98;3.92;;;;;;;;;;5037447;28;20454;-53
2021/12/29 02:49:34;;;;;;;22.58;3.97;;;;;;;;;;5048855;28;20056;-51
2021/12/29 02:52:00;;;;;;;22.80;3.13;;;;;;;;;;5047820;28;20080;-51
2021/12/29 02:54:25;;;;;;;30.48;3.38;;;;;;;;;;5045374;28;20029;-50
2021/12/29 02:56:54;;;;;;;30.05;3.78;;;;;;;;;;5044611;28;20032;-51
2021/12/29 02:59:21;;;;;;;22.05;3.10;;;;;;;;;;5044558;28;20025;-50
2021/12/29 03:01:48;;;;;;;24.05;2.47;;;;;;;;;;5041843;28;20450;-51
2021/12/29 03:04:13;;;;;;;22.65;2.65;;;;;;;;;;5041348;28;20091;-49
2021/12/29 03:06:40;;;;;;;29.52;2.92;;;;;;;;;;5044035;28;20032;-49
2021/12/29 03:09:08;;;;;;;16.75;2.88;;;;;;;;;;5037503;28;20029;-52
2021/12/29 03:11:34;;;;;;;15.32;1.90;;;;;;;;;;5035302;28;20083;-50
2021/12/29 03:14:00;;;;;;;25.83;3.15;;;;;;;;;;5035423;28;20071;-52
2021/12/29 03:16:27;;;;;;;18.52;1.98;;;;;;;;;;5040090;28;20045;-53
2021/12/29 03:18:52;;;;;;;24.83;2.50;;;;;;;;;;5040037;28;20111;-50
2021/12/29 03:21:18;;;;;;;16.23;1.73;;;;;;;;;;5042402;28;20555;-50
2021/12/29 03:23:43;;;;;;;13.50;2.22;;;;;;;;;;5040269;28;20041;-53
2021/12/29 03:26:09;;;;;;;19.35;2.22;;;;;;;;;;5041403;28;20333;-53
2021/12/29 03:28:36;;;;;;;7.75;1.75;;;;;;;;;;5037394;28;20041;-53
2021/12/29 03:31:01;;;;;;;8.93;1.38;;;;;;;;;;5044673;28;20021;-52
2021/12/29 03:33:30;;;;;;;17.50;2.00;;;;;;;;;;5040948;28;20029;-52
2021/12/29 03:36:01;;;;;;;12.70;1.45;;;;;;;;;;5041646;28;20041;-50
2021/12/29 03:38:28;;;;;;;15.23;1.83;;;;;;;;;;5041734;28;20024;-52
2021/12/29 03:40:56;;;;;;;4.03;1.05;;;;;;;;;;5048892;28;20030;-52
2021/12/29 03:43:22;;;;;;;5.95;1.30;;;;;;;;;;5031126;28;20114;-49
2021/12/29 03:45:51;;;;;;;14.38;2.05;;;;;;;;;;5036278;28;20038;-54
2021/12/29 03:48:18;;;;;;;17.65;1.60;;;;;;;;;;5038624;28;20025;-52
2021/12/29 03:50:46;;;;;;;9.52;1.83;;;;;;;;;;5036289;28;20044;-49
2021/12/29 03:53:13;;;;;;;5.93;1.50;;;;;;;;;;5037322;28;20079;-50
2021/12/29 03:55:43;;;;;;;15.43;1.17;;;;;;;;;;5039065;28;20484;-50
2021/12/29 03:58:08;;;;;;;6.63;1.30;;;;;;;;;;5036650;28;20095;-53
2021/12/29 04:00:34;;;;;;;9.52;1.00;;;;;;;;;;5042228;28;20029;-49
2021/12/29 04:03:00;;;;;;;6.18;0.93;;;;;;;;;;5031273;28;20552;-49
2021/12/29 04:05:27;;;;;;;5.47;0.60;;;;;;;;;;5039341;28;20033;-51
2021/12/29 04:07:56;;;;;;;8.65;0.60;;;;;;;;;;5032687;28;20036;-51
2021/12/29 04:10:22;;;;;;;12.70;0.63;;;;;;;;;;5037580;28;20037;-52
2021/12/29 04:12:48;;;;;;;2.10;0.65;;;;;;;;;;5037771;28;20103;-54
2021/12/29 04:15:15;;;;;;;3.25;0.35;;;;;;;;;;5037334;28;20041;-52
2021/12/29 04:17:42;;;;;;;2.85;0.30;;;;;;;;;;5036590;28;20028;-50
2021/12/29 04:22:57;;;;;;;1.55;0.30;;;;;;;;;;5040758;28;20507;-52
2021/12/29 04:25:24;;;;;;;0.57;0.40;;;;;;;;;;5038932;28;20083;-53
2021/12/29 04:27:55;;;;;;;0.30;0.28;;;;;;;;;;5036295;28;20037;-52
2021/12/29 04:30:22;;;;;;;2.83;0.20;;;;;;;;;;5040872;28;20025;-54
2021/12/29 04:32:48;;;;;;;2.25;0.22;;;;;;;;;;5036115;28;20570;-52
2021/12/29 04:35:14;;;;;;;0.10;0.10;;;;;;;;;;5040608;28;20029;-53
2021/12/29 04:37:40;;;;;;;0.40;0.10;;;;;;;;;;5039853;28;20029;-53
2021/12/29 04:40:07;;;;;;;0.10;0.10;;;;;;;;;;5042484;28;20091;-53
2021/12/29 04:42:33;;;;;;;0.20;0.10;;;;;;;;;;5040332;28;20049;-51
2021/12/29 04:44:58;;;;;;;0.20;0.10;;;;;;;;;;5037284;28;20056;-53
2021/12/29 04:47:29;;;;;;;0.20;0.10;;;;;;;;;;5042214;28;20495;-52
2021/12/29 04:49:59;;;;;;;0.80;0.10;;;;;;;;;;5038970;28;20063;-50
2021/12/29 04:52:24;;;;;;;0.10;0.10;;;;;;;;;;5036530;28;20042;-52
2021/12/29 04:54:50;;;;;;;0.10;0.10;;;;;;;;;;5040818;28;20030;-50
2021/12/29 04:57:16;;;;;;;0.15;0.10;;;;;;;;;;5040058;28;20060;-51
2021/12/29 04:59:41;;;;;;;0.90;0.13;;;;;;;;;;5034351;28;20025;-50
2021/12/29 05:02:07;;;;;;;1.20;0.20;;;;;;;;;;5031542;28;20053;-50
2021/12/29 05:04:34;;;;;;;0.40;0.10;;;;;;;;;;5037779;28;20076;-49
2021/12/29 05:09:46;;;;;;;0.20;0.20;;;;;;;;;;5033922;28;20506;-50
2021/12/29 05:12:12;;;;;;;0.10;0.10;;;;;;;;;;5040408;28;20252;-51
2021/12/29 05:14:39;;;;;;;0.93;0.20;;;;;;;;;;5038016;28;20049;-50
2021/12/29 05:17:05;;;;;;;0.10;0.10;;;;;;;;;;5036186;28;20397;-53
2021/12/29 05:19:31;;;;;;;0.10;0.10;;;;;;;;;;5041605;28;20044;-51
2021/12/29 05:21:57;;;;;;;0.10;0.10;;;;;;;;;;5041033;28;20026;-53
2021/12/29 05:24:23;;;;;;;0.10;0.10;;;;;;;;;;5044054;28;20029;-53
2021/12/29 05:26:48;;;;;;;0.10;0.10;;;;;;;;;;5039812;28;20033;-53
2021/12/29 05:29:14;;;;;;;0.10;0.10;;;;;;;;;;5038616;28;20068;-52
2021/12/29 05:31:39;;;;;;;0.10;0.10;;;;;;;;;;5035650;28;20224;-52
2021/12/29 05:34:05;;;;;;;0.10;0.10;;;;;;;;;;5037408;28;20131;-52
2021/12/29 05:36:30;;;;;;;0.10;0.10;;;;;;;;;;5043653;28;20515;-51
2021/12/29 05:38:57;;;;;;;1.95;0.10;;;;;;;;;;5039041;28;20492;-52
2021/12/29 05:41:23;;;;;;;0.10;0.10;;;;;;;;;;5035891;28;20036;-49
2021/12/29 05:43:49;;;;;;;0.10;0.10;;;;;;;;;;5041724;28;20028;-51
2021/12/29 05:46:15;;;;;;;0.10;0.10;;;;;;;;;;5031122;28;20079;-50
2021/12/29 05:48:41;;;;;;;0.17;0.10;;;;;;;;;;5042940;28;20029;-53
2021/12/29 05:51:07;;;;;;;0.13;0.10;;;;;;;;;;5043566;28;20029;-49
2021/12/29 05:53:33;;;;;;;0.10;0.10;;;;;;;;;;5050582;28;20024;-53
2021/12/29 05:55:59;;;;;;;0.10;0.10;;;;;;;;;;5048754;28;20396;-53
2021/12/29 05:58:24;;;;;;;0.17;0.10;;;;;;;;;;5041556;28;20041;-49
2021/12/29 06:00:50;;;;;;;0.10;0.10;;;;;;;;;;5050092;28;20090;-50
2021/12/29 06:03:18;;;;;;;0.25;0.13;;;;;;;;;;5043632;28;20040;-50
2021/12/29 06:05:43;;;;;;;0.10;0.10;;;;;;;;;;5040989;28;20037;-50
2021/12/29 06:08:09;;;;;;;0.08;0.08;;;;;;;;;;5045173;28;20111;-49
2021/12/29 06:10:35;;;;;;;0.10;0.10;;;;;;;;;;5035805;28;20037;-49
2021/12/29 06:13:00;;;;;;;0.10;0.10;;;;;;;;;;5042195;28;20044;-51
2021/12/29 06:15:26;;;;;;;0.10;0.10;;;;;;;;;;5039982;28;20466;-51
2021/12/29 06:17:51;;;;;;;0.10;0.10;;;;;;;;;;5037769;28;20036;-51
2021/12/29 06:20:17;;;;;;;0.55;0.10;;;;;;;;;;5049072;28;20033;-51
2021/12/29 06:22:43;;;;;;;0.63;0.30;;;;;;;;;;5036681;28;20021;-54
2021/12/29 06:25:11;;;;;;;0.38;0.28;;;;;;;;;;5038620;28;20503;-51
2021/12/29 06:27:37;;;;;;;0.15;0.15;;;;;;;;;;5037308;28;20301;-52
2021/12/29 06:30:06;;;;;;;0.52;0.10;;;;;;;;;;5038749;28;20033;-49
2021/12/29 06:32:31;;;;;;;0.30;0.10;;;;;;;;;;5044232;28;20056;-52
2021/12/29 06:34:57;;;;;;;0.10;0.10;;;;;;;;;;5035566;28;20064;-52
2021/12/29 06:37:23;;;;;;;1.75;0.15;;;;;;;;;;5043374;28;20044;-54
2021/12/29 06:39:48;;;;;;;0.10;0.10;;;;;;;;;;5039119;28;20462;-54
2021/12/29 06:42:15;;;;;;;0.10;0.10;;;;;;;;;;5034619;28;20056;-52
2021/12/29 06:44:42;;;;;;;0.15;0.10;;;;;;;;;;5031675;28;20033;-52
2021/12/29 06:47:07;;;;;;;0.10;0.10;;;;;;;;;;5038686;28;20034;-51
2021/12/29 06:49:34;;;;;;;2.28;0.20;;;;;;;;;;5039879;28;20033;-52
2021/12/29 06:52:00;;;;;;;0.60;0.10;;;;;;;;;;5037476;28;20021;-51
2021/12/29 06:54:25;;;;;;;1.23;0.30;;;;;;;;;;5044976;28;20025;-51
2021/12/29 06:56:51;;;;;;;0.47;0.10;;;;;;;;;;5040207;28;20506;-50
2021/12/29 06:59:16;;;;;;;0.30;0.25;;;;;;;;;;5050085;28;20031;-52
2021/12/29 07:01:42;;;;;;;0.20;0.17;;;;;;;;;;5051105;28;20428;-50
2021/12/29 07:04:07;;;;;;;0.30;0.30;;;;;;;;;;5034994;28;20508;-50
2021/12/29 07:06:33;;;;;;;0.22;0.20;;;;;;;;;;5042793;28;20040;-51
2021/12/29 07:08:59;;;;;;;0.13;0.10;;;;;;;;;;5034390;28;20048;-48
2021/12/29 07:11:24;;;;;;;0.20;0.20;;;;;;;;;;5047197;28;20420;-48
2021/12/29 07:13:51;;;;;;;0.10;0.10;;;;;;;;;;5035538;28;20069;-49
2021/12/29 07:16:16;;;;;;;1.42;0.13;;;;;;;;;;5045560;28;20107;-50
2021/12/29 07:18:43;;;;;;;0.10;0.10;;;;;;;;;;5039199;28;20469;-49
2021/12/29 07:21:08;;;;;;;0.10;0.10;;;;;;;;;;5046445;28;20040;-48
2021/12/29 07:23:34;;;;;;;0.17;0.10;;;;;;;;;;5041762;28;20132;-49
2021/12/29 07:25:59;;;;;;;0.10;0.10;;;;;;;;;;5041886;28;20448;-51
2021/12/29 07:28:25;;;;;;;0.10;0.10;;;;;;;;;;5043832;28;20124;-49
2021/12/29 07:30:50;;;;;;;0.10;0.10;;;;;;;;;;5040033;28;20021;-49
2021/12/29 07:33:16;;;;;;;0.10;0.10;;;;;;;;;;5035365;28;20466;-48
2021/12/29 07:35:41;;;;;;;1.13;0.10;;;;;;;;;;5041289;28;20086;-53
2021/12/29 07:38:07;;;;;;;0.10;0.10;;;;;;;;;;5042243;28;20043;-52
2021/12/29 07:40:34;;;;;;;0.10;0.10;;;;;;;;;;5044084;28;20031;-52
2021/12/29 07:43:01;;;;;;;0.10;0.10;;;;;;;;;;5036027;28;20029;-53
2021/12/29 07:45:26;;;;;;;1.70;0.17;;;;;;;;;;5046391;28;20052;-52
2021/12/29 07:47:52;;;;;;;1.40;0.10;;;;;;;;;;5044284;28;20512;-53
2021/12/29 07:50:19;;;;;;;0.10;0.10;;;;;;;;;;5039991;28;20025;-50
2021/12/29 07:52:48;;;;;;;1.20;0.80;;;;;;;;;;5043973;28;20264;-53
2021/12/29 07:55:18;;;;;;;3.60;0.20;;;;;;;;;;5041482;28;20021;-51
2021/12/29 07:57:44;;;;;;;0.45;0.17;;;;;;;;;;5037380;28;20476;-51
2021/12/29 08:00:10;;;;;;;1.95;0.25;;;;;;;;;;5035124;28;20079;-49
2021/12/29 08:02:37;;;;;;;1.27;0.20;;;;;;;;;;5039622;28;20029;-53
2021/12/29 08:05:06;;;;;;;0.10;0.10;;;;;;;;;;5053339;28;20082;-51
2021/12/29 08:07:32;;;;;;;0.45;0.20;;;;;;;;;;5039260;28;20264;-51
2021/12/29 08:09:57;;;;;;;0.28;0.20;;;;;;;;;;5038415;28;20457;-47
2021/12/29 08:12:23;;;;;;;0.98;0.32;;;;;;;;;;5036716;28;20137;-49
2021/12/29 08:14:51;;;;;;;0.45;0.10;;;;;;;;;;5040800;28;20036;-54
2021/12/29 08:17:16;;;;;;;1.73;0.30;;;;;;;;;;5038120;28;21264;-51
2021/12/29 08:19:43;;;;;;;2.42;0.30;;;;;;;;;;5042947;28;20017;-48
2021/12/29 08:22:08;;;;;;;0.28;0.15;;;;;;;;;;5038219;28;20037;-50
2021/12/29 08:24:34;;;;;;;4.28;0.30;;;;;;;;;;5037196;28;20455;-50
2021/12/29 08:26:59;;;;;;;2.95;0.43;;;;;;;;;;5046973;28;20491;-52
2021/12/29 08:29:25;;;;;;;3.00;0.40;;;;;;;;;;5040285;28;20049;-52
2021/12/29 08:31:50;;;;;;;1.08;0.30;;;;;;;;;;5039536;28;20376;-52
2021/12/29 08:34:16;;;;;;;4.90;0.60;;;;;;;;;;5041931;28;20033;-53
2021/12/29 08:36:42;;;;;;;3.70;0.82;;;;;;;;;;5044241;28;20099;-49
2021/12/29 08:39:08;;;;;;;5.55;0.60;;;;;;;;;;5043363;28;20025;-50
2021/12/29 08:41:34;;;;;;;2.28;0.60;;;;;;;;;;5042937;28;20029;-51
2021/12/29 08:43:59;;;;;;;5.05;0.73;;;;;;;;;;5040517;28;20526;-49
2021/12/29 08:46:26;;;;;;;15.60;1.10;;;;;;;;;;5043363;28;20087;-51
2021/12/29 08:48:52;;;;;;;2.75;0.43;;;;;;;;;;5038962;28;20099;-52
2021/12/29 08:51:19;;;;;;;3.70;0.50;;;;;;;;;;5041011;28;20025;-54
2021/12/29 08:53:45;;;;;;;12.45;1.05;;;;;;;;;;5045699;28;20471;-51
2021/12/29 08:56:12;;;;;;;7.72;1.05;;;;;;;;;;5039997;28;20036;-52
2021/12/29 08:58:37;;;;;;;25.27;1.20;;;;;;;;;;5038958;28;20102;-50
2021/12/29 09:01:04;;;;;;;7.72;1.05;;;;;;;;;;5039564;28;20789;-50
2021/12/29 09:03:30;;;;;;;10.50;1.00;;;;;;;;;;5042635;28;20032;-50
2021/12/29 09:05:55;;;;;;;9.85;1.30;;;;;;;;;;5045024;28;20569;-50
2021/12/29 09:08:21;;;;;;;9.40;1.70;;;;;;;;;;5038367;28;20049;-49
2021/12/29 09:10:46;;;;;;;20.63;2.10;;;;;;;;;;5039547;28;20075;-52
2021/12/29 09:13:13;;;;;;;26.35;2.50;;;;;;;;;;5039664;28;20471;-61
2021/12/29 09:15:39;;;;;;;15.07;2.08;;;;;;;;;;5034292;28;20061;-62
2021/12/29 09:18:05;;;;;;;15.10;1.52;;;;;;;;;;5042143;28;20068;-62
2021/12/29 09:20:33;;;;;;;17.80;1.85;;;;;;;;;;5037869;28;20059;-60
2021/12/29 09:23:04;;;;;;;17.30;2.33;;;;;;;;;;5042884;28;20094;-64
2021/12/29 09:25:30;;;;;;;14.77;2.25;;;;;;;;;;5037120;28;20024;-63
2021/12/29 09:27:56;;;;;;;17.92;2.53;;;;;;;;;;5035844;28;20045;-64
2021/12/29 09:30:25;;;;;;;22.52;2.25;;;;;;;;;;5042019;28;20322;-58
2021/12/29 09:32:50;;;;;;;37.28;2.72;;;;;;;;;;5041478;28;20024;-64
2021/12/29 09:35:16;;;;;;;30.17;3.85;;;;;;;;;;5037857;28;20040;-66
2021/12/29 09:37:42;;;;;;;27.35;2.58;;;;;;;;;;5044828;28;20060;-62
2021/12/29 09:40:10;;;;;;;19.60;2.90;;;;;;;;;;5035498;28;20029;-65
2021/12/29 09:42:36;;;;;;;24.27;3.92;;;;;;;;;;5036917;28;20369;-63
2021/12/29 09:45:03;;;;;;;44.63;3.28;;;;;;;;;;5037281;28;20026;-60
2021/12/29 09:47:29;;;;;;;26.33;3.88;;;;;;;;;;5036899;28;20229;-62
2021/12/29 09:49:55;;;;;;;21.90;2.55;;;;;;;;;;5033756;28;20172;-62
2021/12/29 09:52:21;;;;;;;17.60;3.45;;;;;;;;;;5037067;28;20043;-61
2021/12/29 09:54:47;;;;;;;23.48;4.45;;;;;;;;;;5033678;28;20036;-58
2021/12/29 09:57:13;;;;;;;26.35;3.88;;;;;;;;;;5036319;28;20474;-59
2021/12/29 09:59:38;;;;;;;30.60;3.40;;;;;;;;;;5036690;28;20025;-60
2021/12/29 10:02:04;;;;;;;20.17;3.20;;;;;;;;;;5034040;28;20044;-68
2021/12/29 10:04:34;;;;;;;37.85;4.35;;;;;;;;;;5040133;28;20492;-64
2021/12/29 10:07:20;;;;;;;38.80;4.65;;;;;;;;;;5034083;28;20117;-59
2021/12/29 10:09:46;;;;;;;29.52;4.03;;;;;;;;;;5035013;28;20142;-60
2021/12/29 10:12:21;;;;;;;24.60;2.45;;;;;;;;;;5035877;28;20042;-61
2021/12/29 10:14:53;;;;;;;32.75;3.35;;;;;;;;;;5039189;28;20025;-60
2021/12/29 10:17:21;;;;;;;38.00;4.47;;;;;;;;;;5034444;28;20029;-63
2021/12/29 10:19:47;;;;;;;37.75;4.63;;;;;;;;;;5035785;28;20029;-58
2021/12/29 10:22:23;;;;;;;47.88;5.70;;;;;;;;;;5029947;28;20025;-64
2021/12/29 10:25:05;;;;;;;31.00;4.47;;;;;;;;;;5040423;28;20091;-65
2021/12/29 10:27:32;;;;;;;25.38;5.75;;;;;;;;;;5041859;28;20660;-63
2021/12/29 10:29:57;;;;;;;23.02;3.33;;;;;;;;;;5040478;28;20164;-64
2021/12/29 10:32:25;;;;;;;32.97;4.13;;;;;;;;;;5036153;28;20124;-67
2021/12/29 10:34:54;;;;;;;31.23;3.38;;;;;;;;;;5040378;28;20075;-66
2021/12/29 10:37:23;;;;;;;26.45;3.75;;;;;;;;;;5038144;28;20029;-59
2021/12/29 10:39:52;;;;;;;30.45;3.97;;;;;;;;;;5033476;28;20035;-71
2021/12/29 10:42:21;;;;;;;31.80;4.15;;;;;;;;;;5036893;28;20035;-59
2021/12/29 10:44:50;;;;;;;31.67;4.93;;;;;;;;;;5041186;28;20099;-65
2021/12/29 10:47:31;;;;;;;27.25;4.38;;;;;;;;;;5044091;28;20075;-69
2021/12/29 10:50:14;;;;;;;48.80;5.70;;;;;;;;;;5038354;28;20030;-59
2021/12/29 10:52:51;;;;;;;40.10;4.80;;;;;;;;;;5039675;28;20032;-65
2021/12/29 10:55:20;;;;;;;29.88;4.40;;;;;;;;;;5037243;28;20025;-66
2021/12/29 10:57:58;;;;;;;37.42;4.15;;;;;;;;;;5037314;28;20081;-70
2021/12/29 11:00:24;;;;;;;32.15;4.75;;;;;;;;;;5034521;28;20119;-74
2021/12/29 11:02:49;;;;;;;31.38;4.75;;;;;;;;;;5034330;28;20576;-65
2021/12/29 11:05:15;;;;;;;35.97;4.85;;;;;;;;;;5042123;28;20029;-61
2021/12/29 11:07:41;;;;;;;29.48;2.88;;;;;;;;;;5036192;28;20037;-60
2021/12/29 11:10:12;;;;;;;27.02;3.85;;;;;;;;;;5036976;28;20443;-62
2021/12/29 11:12:44;;;;;;;30.17;3.85;;;;;;;;;;5039199;28;20049;-69
2021/12/29 11:15:23;;;;;;;34.42;4.85;;;;;;;;;;5042312;28;20136;-61
2021/12/29 11:17:49;;;;;;;50.88;5.28;;;;;;;;;;5035842;28;20569;-61
2021/12/29 11:20:22;;;;;;;50.83;5.38;;;;;;;;;;5041056;28;20121;-61
2021/12/29 11:22:48;;;;;;;;;;;;;;;;;;5036171;28;20017;-60
2021/12/29 11:25:13;;;;;;;42.67;5.47;;;;;;;;;;5038136;28;20390;-63
2021/12/29 11:27:39;;;;;;;50.55;4.20;;;;;;;;;;5030607;28;20515;-62
2021/12/29 11:30:07;;;;;;;39.55;5.22;;;;;;;;;;5036167;28;20125;-66
2021/12/29 11:32:39;;;;;;;54.40;6.82;;;;;;;;;;5035131;28;20504;-60
2021/12/29 11:35:07;;;;;;;43.53;6.72;;;;;;;;;;5036980;28;20496;-65
2021/12/29 11:37:33;;;;;;;35.38;5.07;;;;;;;;;;5034859;28;20397;-59
2021/12/29 11:39:59;;;;;;;36.83;3.65;;;;;;;;;;5040622;28;20033;-55
2021/12/29 11:42:25;;;;;;;47.88;4.10;;;;;;;;;;5034298;28;20024;-59
2021/12/29 11:44:51;;;;;;;45.38;3.22;;;;;;;;;;5035242;28;20100;-60
2021/12/29 11:47:17;;;;;;;43.10;4.57;;;;;;;;;;5039646;28;20060;-59
2021/12/29 11:49:43;;;;;;;31.55;4.30;;;;;;;;;;5040293;28;20035;-64
2021/12/29 11:52:09;;;;;;;58.80;6.40;;;;;;;;;;5039012;28;20033;-61
2021/12/29 11:55:04;;;;;;;43.15;5.97;;;;;;;;;;5038893;28;20053;-76
2021/12/29 11:57:32;;;;;;;50.00;4.22;;;;;;;;;;5039113;28;20021;-62
2021/12/29 12:00:08;;;;;;;38.85;5.03;;;;;;;;;;5037302;28;20021;-65
2021/12/29 12:02:33;;;;;;;55.60;5.40;;;;;;;;;;5032863;28;20495;-61
2021/12/29 12:05:36;;;;;;;96.07;8.35;;;;;;;;;;5036747;28;20027;-61
2021/12/29 12:08:24;;;;;;;40.28;4.20;;;;;;;;;;5023824;28;20730;-66
2021/12/29 12:10:51;;;;;;;74.20;7.85;;;;;;;;;;5038044;28;20052;-58
2021/12/29 12:13:30;;;;;;;42.45;4.90;;;;;;;;;;5034837;28;20064;-66
2021/12/29 12:16:10;;;;;;;45.92;7.38;;;;;;;;;;5038412;28;20087;-58
2021/12/29 12:18:51;;;;;;;39.47;5.30;;;;;;;;;;5038732;28;20017;-57
2021/12/29 12:21:32;;;;;;;55.85;7.43;;;;;;;;;;5040188;28;20021;-58
2021/12/29 12:24:26;;;;;;;40.83;4.85;;;;;;;;;;5038648;28;20112;-59
2021/12/29 12:26:53;;;;;;;69.65;7.45;;;;;;;;;;5032727;28;20037;-63
2021/12/29 12:29:21;;;;;;;31.70;4.88;;;;;;;;;;5032310;28;20033;-60
2021/12/29 12:31:59;;;;;;;37.58;4.80;;;;;;;;;;5029440;28;20105;-61
2021/12/29 12:34:25;;;;;;;49.72;6.15;;;;;;;;;;5036109;28;20120;-59
2021/12/29 12:36:51;;;;;;;44.70;6.97;;;;;;;;;;5034738;28;20033;-59
2021/12/29 12:39:19;;;;;;;38.75;4.40;;;;;;;;;;5039913;28;20222;-65
2021/12/29 12:41:48;;;;;;;55.20;6.05;;;;;;;;;;5032518;28;20025;-64
2021/12/29 12:44:19;;;;;;;49.17;5.22;;;;;;;;;;5032753;28;20029;-65
2021/12/29 12:46:52;;;;;;;36.87;5.10;;;;;;;;;;5030244;28;20036;-67
2021/12/29 12:49:25;;;;;;;49.47;7.22;;;;;;;;;;5036227;28;20028;-64
2021/12/29 12:51:59;;;;;;;43.67;4.95;;;;;;;;;;5038329;28;20033;-58
2021/12/29 12:54:27;;;;;;;27.63;3.60;;;;;;;;;;5036284;28;20103;-57
2021/12/29 12:56:56;;;;;;;36.20;4.47;;;;;;;;;;5041653;28;20471;-56
2021/12/29 12:59:22;;;;;;;56.17;6.47;;;;;;;;;;5040646;28;20068;-59
2021/12/29 13:01:50;;;;;;;47.03;5.32;;;;;;;;;;5038378;28;20110;-63
2021/12/29 13:04:17;;;;;;;39.55;4.95;;;;;;;;;;5041674;28;20041;-60
2021/12/29 13:06:49;;;;;;;53.00;7.28;;;;;;;;;;5036704;28;20116;-61
2021/12/29 13:09:19;;;;;;;44.55;5.20;;;;;;;;;;5033461;28;20025;-61
2021/12/29 13:11:45;;;;;;;49.80;6.22;;;;;;;;;;5037660;28;20100;-63
2021/12/29 13:14:11;;;;;;;53.35;6.97;;;;;;;;;;5037682;28;20253;-59
2021/12/29 13:16:38;;;;;;;46.20;5.47;;;;;;;;;;5044937;28;20463;-62
2021/12/29 13:19:03;;;;;;;48.85;5.85;;;;;;;;;;5035768;28;20468;-58
2021/12/29 13:21:36;;;;;;;45.75;5.85;;;;;;;;;;5037081;28;20037;-60
2021/12/29 13:24:05;;;;;;;42.35;4.97;;;;;;;;;;5035574;28;20609;-63
2021/12/29 13:26:36;;;;;;;57.63;6.88;;;;;;;;;;5040795;28;20037;-58
2021/12/29 13:29:08;;;;;;;50.22;5.82;;;;;;;;;;5037199;28;20033;-58
2021/12/29 13:31:34;;;;;;;47.03;5.15;;;;;;;;;;5039046;28;20428;-60
2021/12/29 13:34:00;;;;;;;48.92;5.78;;;;;;;;;;5038313;28;20034;-59
2021/12/29 13:36:27;;;;;;;45.25;5.50;;;;;;;;;;5047625;28;20036;-64
2021/12/29 13:38:56;;;;;;;48.30;4.55;;;;;;;;;;5038249;28;20042;-62
2021/12/29 13:41:32;;;;;;;59.95;5.00;;;;;;;;;;5040410;28;20407;-65
2021/12/29 13:44:01;;;;;;;43.45;7.28;;;;;;;;;;5039910;28;20037;-64
2021/12/29 13:46:33;;;;;;;44.80;5.43;;;;;;;;;;5037700;28;20055;-58
2021/12/29 13:49:00;;;;;;;;;;;;;;;;;;5035403;28;20029;-62
2021/12/29 13:51:31;;;;;;;44.22;4.57;;;;;;;;;;5035577;28;19916;-63
2021/12/29 13:54:12;;;;;;;38.92;4.72;;;;;;;;;;5040150;28;20033;-65
2021/12/29 13:56:43;;;;;;;41.25;4.68;;;;;;;;;;5035630;28;20047;-63
2021/12/29 13:59:12;;;;;;;32.78;3.70;;;;;;;;;;5036608;28;20515;-62
2021/12/29 14:01:47;;;;;;;47.10;4.93;;;;;;;;;;5037271;28;20021;-63
2021/12/29 14:04:18;;;;;;;39.67;3.60;;;;;;;;;;5040409;28;20109;-60
2021/12/29 14:06:45;;;;;;;37.33;4.75;;;;;;;;;;5035587;28;20104;-62
2021/12/29 14:09:12;;;;;;;46.97;4.40;;;;;;;;;;5036110;28;20615;-61
2021/12/29 14:11:38;;;;;;;38.95;5.68;;;;;;;;;;5038317;28;20412;-66
2021/12/29 14:14:09;;;;;;;38.08;3.55;;;;;;;;;;5035211;28;20167;-63
2021/12/29 14:17:10;;;;;;;34.92;3.72;;;;;;;;;;5033223;28;20025;-63
2021/12/29 14:19:36;;;;;;;33.95;4.15;;;;;;;;;;5025331;28;20075;-63
2021/12/29 14:22:02;;;;;;;33.03;4.43;;;;;;;;;;5036872;28;20395;-63
2021/12/29 14:24:28;;;;;;;36.53;4.78;;;;;;;;;;5028970;28;20052;-60
2021/12/29 14:26:56;;;;;;;33.15;3.63;;;;;;;;;;5039029;28;20521;-62
2021/12/29 14:29:33;;;;;;;55.72;4.40;;;;;;;;;;5036584;28;20029;-61
2021/12/29 14:32:01;;;;;;;33.28;3.30;;;;;;;;;;5032256;28;20115;-62
2021/12/29 14:34:52;;;;;;;33.85;2.95;;;;;;;;;;5046403;28;20029;-64
2021/12/29 14:37:18;;;;;;;31.58;3.33;;;;;;;;;;5039596;28;20021;-61
2021/12/29 14:39:44;;;;;;;30.88;4.15;;;;;;;;;;5043661;28;20087;-60
2021/12/29 14:42:19;;;;;;;32.95;3.30;;;;;;;;;;5035559;28;20075;-59